sensor_id;sensor_type;location;lat;lon;timestamp;P1;durP1;ratioP1;P2;durP2;ratioP2
64667;SDS011;51077;42.716;23.344;2024-03-22T00:01:49;20.80;;;13.38;;
64667;SDS011;51077;42.716;23.344;2024-03-22T00:04:15;25.67;;;15.43;;
64667;SDS011;51077;42.716;23.344;2024-03-22T00:06:41;25.07;;;14.53;;
64667;SDS011;51077;42.716;23.344;2024-03-22T00:09:07;26.25;;;14.88;;
64667;SDS011;51077;42.716;23.344;2024-03-22T00:11:33;24.17;;;14.30;;
64667;SDS011;51077;42.716;23.344;2024-03-22T00:13:59;21.77;;;13.50;;
64667;SDS011;51077;42.716;23.344;2024-03-22T00:16:24;20.47;;;12.90;;
64667;SDS011;51077;42.716;23.344;2024-03-22T00:18:50;23.43;;;13.20;;
64667;SDS011;51077;42.716;23.344;2024-03-22T00:21:15;27.27;;;13.63;;
64667;SDS011;51077;42.716;23.344;2024-03-22T00:23:41;22.77;;;13.13;;
64667;SDS011;51077;42.716;23.344;2024-03-22T00:26:07;23.23;;;13.47;;
64667;SDS011;51077;42.716;23.344;2024-03-22T00:28:32;23.60;;;14.07;;
64667;SDS011;51077;42.716;23.344;2024-03-22T00:30:58;24.13;;;13.37;;
64667;SDS011;51077;42.716;23.344;2024-03-22T00:33:23;23.53;;;14.10;;
64667;SDS011;51077;42.716;23.344;2024-03-22T00:35:49;21.80;;;12.63;;
64667;SDS011;51077;42.716;23.344;2024-03-22T00:38:14;22.97;;;13.20;;
64667;SDS011;51077;42.716;23.344;2024-03-22T00:40:40;21.20;;;13.10;;
64667;SDS011;51077;42.716;23.344;2024-03-22T00:43:06;21.70;;;13.93;;
64667;SDS011;51077;42.716;23.344;2024-03-22T00:45:31;22.98;;;13.30;;
64667;SDS011;51077;42.716;23.344;2024-03-22T00:47:57;21.43;;;13.27;;
64667;SDS011;51077;42.716;23.344;2024-03-22T00:50:22;24.90;;;13.90;;
64667;SDS011;51077;42.716;23.344;2024-03-22T00:52:47;22.33;;;13.40;;
64667;SDS011;51077;42.716;23.344;2024-03-22T00:55:15;23.50;;;13.55;;
64667;SDS011;51077;42.716;23.344;2024-03-22T00:57:40;21.43;;;12.63;;
64667;SDS011;51077;42.716;23.344;2024-03-22T01:00:06;21.70;;;13.57;;
64667;SDS011;51077;42.716;23.344;2024-03-22T01:02:32;22.20;;;13.38;;
64667;SDS011;51077;42.716;23.344;2024-03-22T01:04:57;25.37;;;13.23;;
64667;SDS011;51077;42.716;23.344;2024-03-22T01:07:23;20.30;;;12.80;;
64667;SDS011;51077;42.716;23.344;2024-03-22T01:09:48;22.43;;;13.80;;
64667;SDS011;51077;42.716;23.344;2024-03-22T01:12:14;19.83;;;12.13;;
64667;SDS011;51077;42.716;23.344;2024-03-22T01:14:39;21.70;;;12.83;;
64667;SDS011;51077;42.716;23.344;2024-03-22T01:17:04;23.57;;;13.03;;
64667;SDS011;51077;42.716;23.344;2024-03-22T01:19:30;24.73;;;13.00;;
64667;SDS011;51077;42.716;23.344;2024-03-22T01:21:55;20.97;;;12.90;;
64667;SDS011;51077;42.716;23.344;2024-03-22T01:24:21;22.80;;;13.40;;
64667;SDS011;51077;42.716;23.344;2024-03-22T01:26:46;25.70;;;13.97;;
64667;SDS011;51077;42.716;23.344;2024-03-22T01:29:13;23.77;;;12.97;;
64667;SDS011;51077;42.716;23.344;2024-03-22T01:31:38;24.17;;;14.00;;
64667;SDS011;51077;42.716;23.344;2024-03-22T01:34:04;23.30;;;13.60;;
64667;SDS011;51077;42.716;23.344;2024-03-22T01:36:30;24.75;;;14.05;;
64667;SDS011;51077;42.716;23.344;2024-03-22T01:38:55;27.30;;;14.40;;
64667;SDS011;51077;42.716;23.344;2024-03-22T01:41:21;24.80;;;14.30;;
64667;SDS011;51077;42.716;23.344;2024-03-22T01:43:46;24.37;;;13.67;;
64667;SDS011;51077;42.716;23.344;2024-03-22T01:46:11;24.97;;;14.77;;
64667;SDS011;51077;42.716;23.344;2024-03-22T01:48:37;24.33;;;14.43;;
64667;SDS011;51077;42.716;23.344;2024-03-22T01:51:02;24.30;;;14.60;;
64667;SDS011;51077;42.716;23.344;2024-03-22T01:53:29;27.10;;;14.85;;
64667;SDS011;51077;42.716;23.344;2024-03-22T01:55:56;27.75;;;14.45;;
64667;SDS011;51077;42.716;23.344;2024-03-22T01:58:21;27.47;;;14.90;;
64667;SDS011;51077;42.716;23.344;2024-03-22T02:00:47;24.50;;;14.40;;
64667;SDS011;51077;42.716;23.344;2024-03-22T02:03:12;24.50;;;13.67;;
64667;SDS011;51077;42.716;23.344;2024-03-22T02:05:38;25.40;;;14.63;;
64667;SDS011;51077;42.716;23.344;2024-03-22T02:08:03;26.47;;;14.63;;
64667;SDS011;51077;42.716;23.344;2024-03-22T02:10:29;27.97;;;15.33;;
64667;SDS011;51077;42.716;23.344;2024-03-22T02:12:55;24.90;;;14.87;;
64667;SDS011;51077;42.716;23.344;2024-03-22T02:15:20;25.83;;;14.67;;
64667;SDS011;51077;42.716;23.344;2024-03-22T02:17:46;27.63;;;15.67;;
64667;SDS011;51077;42.716;23.344;2024-03-22T02:20:11;25.67;;;15.23;;
64667;SDS011;51077;42.716;23.344;2024-03-22T02:22:37;23.83;;;13.40;;
64667;SDS011;51077;42.716;23.344;2024-03-22T02:25:03;27.60;;;14.80;;
64667;SDS011;51077;42.716;23.344;2024-03-22T02:27:28;26.80;;;15.00;;
64667;SDS011;51077;42.716;23.344;2024-03-22T02:29:54;25.53;;;14.83;;
64667;SDS011;51077;42.716;23.344;2024-03-22T02:32:19;23.30;;;14.30;;
64667;SDS011;51077;42.716;23.344;2024-03-22T02:34:45;21.97;;;13.90;;
64667;SDS011;51077;42.716;23.344;2024-03-22T02:37:10;23.43;;;14.53;;
64667;SDS011;51077;42.716;23.344;2024-03-22T02:39:35;22.77;;;14.70;;
64667;SDS011;51077;42.716;23.344;2024-03-22T02:42:01;25.40;;;15.10;;
64667;SDS011;51077;42.716;23.344;2024-03-22T02:44:26;21.70;;;14.33;;
64667;SDS011;51077;42.716;23.344;2024-03-22T02:46:51;22.27;;;13.93;;
64667;SDS011;51077;42.716;23.344;2024-03-22T02:49:17;23.27;;;13.73;;
64667;SDS011;51077;42.716;23.344;2024-03-22T02:51:42;24.37;;;14.23;;
64667;SDS011;51077;42.716;23.344;2024-03-22T02:54:07;26.23;;;13.43;;
64667;SDS011;51077;42.716;23.344;2024-03-22T02:56:33;24.43;;;14.50;;
64667;SDS011;51077;42.716;23.344;2024-03-22T02:58:58;22.83;;;13.97;;
64667;SDS011;51077;42.716;23.344;2024-03-22T03:01:24;22.40;;;12.87;;
64667;SDS011;51077;42.716;23.344;2024-03-22T03:03:49;20.90;;;13.43;;
64667;SDS011;51077;42.716;23.344;2024-03-22T03:06:14;21.50;;;12.97;;
64667;SDS011;51077;42.716;23.344;2024-03-22T03:08:41;19.40;;;13.10;;
64667;SDS011;51077;42.716;23.344;2024-03-22T03:11:07;22.70;;;12.90;;
64667;SDS011;51077;42.716;23.344;2024-03-22T03:13:32;20.70;;;12.13;;
64667;SDS011;51077;42.716;23.344;2024-03-22T03:15:57;22.47;;;11.97;;
64667;SDS011;51077;42.716;23.344;2024-03-22T03:18:23;20.10;;;11.77;;
64667;SDS011;51077;42.716;23.344;2024-03-22T03:20:48;19.27;;;11.37;;
64667;SDS011;51077;42.716;23.344;2024-03-22T03:23:14;20.87;;;11.80;;
64667;SDS011;51077;42.716;23.344;2024-03-22T03:25:39;18.03;;;10.90;;
64667;SDS011;51077;42.716;23.344;2024-03-22T03:28:04;16.17;;;10.47;;
64667;SDS011;51077;42.716;23.344;2024-03-22T03:30:32;21.45;;;11.40;;
64667;SDS011;51077;42.716;23.344;2024-03-22T03:32:58;22.93;;;10.70;;
64667;SDS011;51077;42.716;23.344;2024-03-22T03:35:23;22.80;;;11.93;;
64667;SDS011;51077;42.716;23.344;2024-03-22T03:37:50;18.83;;;10.50;;
64667;SDS011;51077;42.716;23.344;2024-03-22T03:40:16;20.27;;;11.47;;
64667;SDS011;51077;42.716;23.344;2024-03-22T03:42:41;16.43;;;9.70;;
64667;SDS011;51077;42.716;23.344;2024-03-22T03:45:06;22.77;;;10.90;;
64667;SDS011;51077;42.716;23.344;2024-03-22T03:47:32;21.23;;;10.80;;
64667;SDS011;51077;42.716;23.344;2024-03-22T03:49:58;21.30;;;11.68;;
64667;SDS011;51077;42.716;23.344;2024-03-22T03:52:23;22.03;;;11.53;;
64667;SDS011;51077;42.716;23.344;2024-03-22T03:54:49;19.50;;;10.48;;
64667;SDS011;51077;42.716;23.344;2024-03-22T03:57:15;20.97;;;10.37;;
64667;SDS011;51077;42.716;23.344;2024-03-22T03:59:40;18.60;;;11.00;;
64667;SDS011;51077;42.716;23.344;2024-03-22T04:02:05;18.43;;;10.50;;
64667;SDS011;51077;42.716;23.344;2024-03-22T04:04:31;17.97;;;10.43;;
64667;SDS011;51077;42.716;23.344;2024-03-22T04:06:56;17.90;;;10.33;;
64667;SDS011;51077;42.716;23.344;2024-03-22T04:09:22;18.73;;;10.83;;
64667;SDS011;51077;42.716;23.344;2024-03-22T04:11:47;18.00;;;10.77;;
64667;SDS011;51077;42.716;23.344;2024-03-22T04:14:12;16.60;;;9.60;;
64667;SDS011;51077;42.716;23.344;2024-03-22T04:16:38;19.27;;;10.90;;
64667;SDS011;51077;42.716;23.344;2024-03-22T04:19:03;19.33;;;10.53;;
64667;SDS011;51077;42.716;23.344;2024-03-22T04:21:29;18.03;;;9.70;;
64667;SDS011;51077;42.716;23.344;2024-03-22T04:23:54;15.87;;;9.23;;
64667;SDS011;51077;42.716;23.344;2024-03-22T04:26:20;15.27;;;8.23;;
64667;SDS011;51077;42.716;23.344;2024-03-22T04:28:46;12.82;;;7.72;;
64667;SDS011;51077;42.716;23.344;2024-03-22T04:31:11;11.48;;;7.68;;
64667;SDS011;51077;42.716;23.344;2024-03-22T04:33:37;14.93;;;8.27;;
64667;SDS011;51077;42.716;23.344;2024-03-22T04:36:03;14.07;;;7.90;;
64667;SDS011;51077;42.716;23.344;2024-03-22T04:38:29;13.80;;;7.80;;
64667;SDS011;51077;42.716;23.344;2024-03-22T04:40:55;14.30;;;8.88;;
64667;SDS011;51077;42.716;23.344;2024-03-22T04:43:22;13.55;;;8.60;;
64667;SDS011;51077;42.716;23.344;2024-03-22T04:45:48;16.00;;;8.60;;
64667;SDS011;51077;42.716;23.344;2024-03-22T04:48:16;13.45;;;8.43;;
64667;SDS011;51077;42.716;23.344;2024-03-22T04:50:43;12.45;;;8.18;;
64667;SDS011;51077;42.716;23.344;2024-03-22T04:53:10;16.05;;;9.55;;
64667;SDS011;51077;42.716;23.344;2024-03-22T04:55:35;16.27;;;9.73;;
64667;SDS011;51077;42.716;23.344;2024-03-22T04:58:01;14.10;;;8.87;;
64667;SDS011;51077;42.716;23.344;2024-03-22T05:00:29;16.10;;;9.83;;
64667;SDS011;51077;42.716;23.344;2024-03-22T05:02:55;16.30;;;9.88;;
64667;SDS011;51077;42.716;23.344;2024-03-22T05:05:20;17.07;;;10.53;;
64667;SDS011;51077;42.716;23.344;2024-03-22T05:07:46;19.25;;;10.55;;
64667;SDS011;51077;42.716;23.344;2024-03-22T05:10:12;19.20;;;11.53;;
64667;SDS011;51077;42.716;23.344;2024-03-22T05:12:38;20.08;;;11.38;;
64667;SDS011;51077;42.716;23.344;2024-03-22T05:15:05;15.60;;;10.27;;
64667;SDS011;51077;42.716;23.344;2024-03-22T05:17:31;19.92;;;11.77;;
64667;SDS011;51077;42.716;23.344;2024-03-22T05:19:57;22.10;;;12.07;;
64667;SDS011;51077;42.716;23.344;2024-03-22T05:22:23;18.20;;;11.25;;
64667;SDS011;51077;42.716;23.344;2024-03-22T05:24:49;19.00;;;11.07;;
64667;SDS011;51077;42.716;23.344;2024-03-22T05:27:14;17.90;;;11.03;;
64667;SDS011;51077;42.716;23.344;2024-03-22T05:29:40;17.10;;;10.80;;
64667;SDS011;51077;42.716;23.344;2024-03-22T05:32:05;22.07;;;11.47;;
64667;SDS011;51077;42.716;23.344;2024-03-22T05:34:40;20.37;;;11.30;;
64667;SDS011;51077;42.716;23.344;2024-03-22T05:37:05;18.92;;;11.15;;
64667;SDS011;51077;42.716;23.344;2024-03-22T05:39:30;22.37;;;11.53;;
64667;SDS011;51077;42.716;23.344;2024-03-22T05:41:56;18.70;;;11.43;;
64667;SDS011;51077;42.716;23.344;2024-03-22T05:44:21;21.87;;;12.30;;
64667;SDS011;51077;42.716;23.344;2024-03-22T05:46:47;18.08;;;11.98;;
64667;SDS011;51077;42.716;23.344;2024-03-22T05:49:13;20.53;;;11.53;;
64667;SDS011;51077;42.716;23.344;2024-03-22T05:51:38;21.70;;;11.47;;
64667;SDS011;51077;42.716;23.344;2024-03-22T05:54:04;17.80;;;11.03;;
64667;SDS011;51077;42.716;23.344;2024-03-22T05:56:29;20.70;;;13.37;;
64667;SDS011;51077;42.716;23.344;2024-03-22T05:58:55;21.10;;;11.53;;
64667;SDS011;51077;42.716;23.344;2024-03-22T06:01:20;20.07;;;11.53;;
64667;SDS011;51077;42.716;23.344;2024-03-22T06:03:45;20.03;;;12.57;;
64667;SDS011;51077;42.716;23.344;2024-03-22T06:06:11;20.80;;;11.57;;
64667;SDS011;51077;42.716;23.344;2024-03-22T06:08:37;21.40;;;12.15;;
64667;SDS011;51077;42.716;23.344;2024-03-22T06:11:04;20.85;;;12.68;;
64667;SDS011;51077;42.716;23.344;2024-03-22T06:13:32;21.80;;;11.48;;
64667;SDS011;51077;42.716;23.344;2024-03-22T06:15:58;20.95;;;12.13;;
64667;SDS011;51077;42.716;23.344;2024-03-22T06:18:23;19.10;;;11.50;;
64667;SDS011;51077;42.716;23.344;2024-03-22T06:20:48;22.33;;;12.53;;
64667;SDS011;51077;42.716;23.344;2024-03-22T06:23:14;18.83;;;12.23;;
64667;SDS011;51077;42.716;23.344;2024-03-22T06:25:39;21.53;;;11.97;;
64667;SDS011;51077;42.716;23.344;2024-03-22T06:28:05;20.87;;;11.77;;
64667;SDS011;51077;42.716;23.344;2024-03-22T06:30:30;19.20;;;12.17;;
64667;SDS011;51077;42.716;23.344;2024-03-22T06:32:55;21.10;;;12.30;;
64667;SDS011;51077;42.716;23.344;2024-03-22T06:35:21;22.37;;;11.97;;
64667;SDS011;51077;42.716;23.344;2024-03-22T06:37:47;19.70;;;11.50;;
64667;SDS011;51077;42.716;23.344;2024-03-22T06:40:13;25.27;;;13.32;;
64667;SDS011;51077;42.716;23.344;2024-03-22T06:42:39;19.37;;;11.60;;
64667;SDS011;51077;42.716;23.344;2024-03-22T06:45:05;21.23;;;11.33;;
64667;SDS011;51077;42.716;23.344;2024-03-22T06:47:30;19.40;;;11.50;;
64667;SDS011;51077;42.716;23.344;2024-03-22T06:49:56;19.27;;;12.13;;
64667;SDS011;51077;42.716;23.344;2024-03-22T06:52:22;19.52;;;11.52;;
64667;SDS011;51077;42.716;23.344;2024-03-22T06:54:48;18.43;;;10.30;;
64667;SDS011;51077;42.716;23.344;2024-03-22T06:57:13;17.13;;;11.40;;
64667;SDS011;51077;42.716;23.344;2024-03-22T06:59:39;18.47;;;11.00;;
64667;SDS011;51077;42.716;23.344;2024-03-22T07:02:04;17.47;;;10.27;;
64667;SDS011;51077;42.716;23.344;2024-03-22T07:04:30;17.57;;;10.43;;
64667;SDS011;51077;42.716;23.344;2024-03-22T07:06:55;16.03;;;9.80;;
64667;SDS011;51077;42.716;23.344;2024-03-22T07:09:20;15.57;;;10.53;;
64667;SDS011;51077;42.716;23.344;2024-03-22T07:11:46;16.83;;;10.10;;
64667;SDS011;51077;42.716;23.344;2024-03-22T07:14:12;19.90;;;10.17;;
64667;SDS011;51077;42.716;23.344;2024-03-22T07:16:37;17.87;;;10.20;;
64667;SDS011;51077;42.716;23.344;2024-03-22T07:19:02;15.90;;;9.57;;
64667;SDS011;51077;42.716;23.344;2024-03-22T07:21:28;14.93;;;9.10;;
64667;SDS011;51077;42.716;23.344;2024-03-22T07:23:54;15.93;;;9.38;;
64667;SDS011;51077;42.716;23.344;2024-03-22T07:26:20;12.83;;;8.30;;
64667;SDS011;51077;42.716;23.344;2024-03-22T07:28:45;14.23;;;8.47;;
64667;SDS011;51077;42.716;23.344;2024-03-22T07:31:10;12.47;;;8.13;;
64667;SDS011;51077;42.716;23.344;2024-03-22T07:33:36;16.40;;;7.53;;
64667;SDS011;51077;42.716;23.344;2024-03-22T07:36:02;13.67;;;8.10;;
64667;SDS011;51077;42.716;23.344;2024-03-22T07:38:28;11.13;;;7.60;;
64667;SDS011;51077;42.716;23.344;2024-03-22T07:40:53;13.40;;;8.17;;
64667;SDS011;51077;42.716;23.344;2024-03-22T07:43:19;14.03;;;7.70;;
64667;SDS011;51077;42.716;23.344;2024-03-22T07:45:45;14.27;;;7.93;;
64667;SDS011;51077;42.716;23.344;2024-03-22T07:48:10;11.47;;;6.97;;
64667;SDS011;51077;42.716;23.344;2024-03-22T07:50:36;11.95;;;7.95;;
64667;SDS011;51077;42.716;23.344;2024-03-22T07:53:02;11.33;;;7.03;;
64667;SDS011;51077;42.716;23.344;2024-03-22T07:55:27;9.53;;;6.70;;
64667;SDS011;51077;42.716;23.344;2024-03-22T07:57:52;10.20;;;6.60;;
64667;SDS011;51077;42.716;23.344;2024-03-22T08:00:18;10.17;;;6.70;;
64667;SDS011;51077;42.716;23.344;2024-03-22T08:02:43;8.57;;;6.10;;
64667;SDS011;51077;42.716;23.344;2024-03-22T08:05:09;9.40;;;5.73;;
64667;SDS011;51077;42.716;23.344;2024-03-22T08:07:34;8.50;;;6.00;;
64667;SDS011;51077;42.716;23.344;2024-03-22T08:10:00;7.43;;;5.17;;
64667;SDS011;51077;42.716;23.344;2024-03-22T08:12:27;8.77;;;5.57;;
64667;SDS011;51077;42.716;23.344;2024-03-22T08:14:52;8.20;;;4.90;;
64667;SDS011;51077;42.716;23.344;2024-03-22T08:17:18;7.07;;;5.27;;
64667;SDS011;51077;42.716;23.344;2024-03-22T08:19:44;7.15;;;4.85;;
64667;SDS011;51077;42.716;23.344;2024-03-22T08:22:09;7.13;;;4.87;;
64667;SDS011;51077;42.716;23.344;2024-03-22T08:24:35;8.70;;;4.77;;
64667;SDS011;51077;42.716;23.344;2024-03-22T08:27:00;7.90;;;4.97;;
64667;SDS011;51077;42.716;23.344;2024-03-22T08:29:26;6.67;;;4.17;;
64667;SDS011;51077;42.716;23.344;2024-03-22T08:31:51;6.97;;;4.13;;
64667;SDS011;51077;42.716;23.344;2024-03-22T08:34:18;8.15;;;4.80;;
64667;SDS011;51077;42.716;23.344;2024-03-22T08:36:43;6.03;;;4.03;;
64667;SDS011;51077;42.716;23.344;2024-03-22T08:39:09;6.43;;;4.10;;
64667;SDS011;51077;42.716;23.344;2024-03-22T08:41:36;8.05;;;4.20;;
64667;SDS011;51077;42.716;23.344;2024-03-22T08:44:04;6.03;;;3.85;;
64667;SDS011;51077;42.716;23.344;2024-03-22T08:46:29;6.33;;;3.73;;
64667;SDS011;51077;42.716;23.344;2024-03-22T08:48:57;7.10;;;3.75;;
64667;SDS011;51077;42.716;23.344;2024-03-22T08:51:22;5.50;;;3.57;;
64667;SDS011;51077;42.716;23.344;2024-03-22T08:53:47;8.33;;;3.40;;
64667;SDS011;51077;42.716;23.344;2024-03-22T08:56:13;4.57;;;3.30;;
64667;SDS011;51077;42.716;23.344;2024-03-22T08:58:38;5.93;;;3.33;;
64667;SDS011;51077;42.716;23.344;2024-03-22T09:01:05;4.63;;;3.03;;
64667;SDS011;51077;42.716;23.344;2024-03-22T09:03:31;6.07;;;3.53;;
64667;SDS011;51077;42.716;23.344;2024-03-22T09:05:56;4.53;;;3.20;;
64667;SDS011;51077;42.716;23.344;2024-03-22T09:08:21;6.97;;;3.00;;
64667;SDS011;51077;42.716;23.344;2024-03-22T09:10:47;5.73;;;3.00;;
64667;SDS011;51077;42.716;23.344;2024-03-22T09:13:13;4.72;;;3.20;;
64667;SDS011;51077;42.716;23.344;2024-03-22T09:15:39;4.40;;;2.70;;
64667;SDS011;51077;42.716;23.344;2024-03-22T09:18:05;5.07;;;2.50;;
64667;SDS011;51077;42.716;23.344;2024-03-22T09:20:30;4.30;;;2.50;;
64667;SDS011;51077;42.716;23.344;2024-03-22T09:22:56;3.93;;;2.47;;
64667;SDS011;51077;42.716;23.344;2024-03-22T09:25:22;6.13;;;2.90;;
64667;SDS011;51077;42.716;23.344;2024-03-22T09:27:48;4.63;;;2.85;;
64667;SDS011;51077;42.716;23.344;2024-03-22T09:30:14;4.07;;;2.80;;
64667;SDS011;51077;42.716;23.344;2024-03-22T09:32:39;4.43;;;2.60;;
64667;SDS011;51077;42.716;23.344;2024-03-22T09:35:05;4.80;;;2.63;;
64667;SDS011;51077;42.716;23.344;2024-03-22T09:37:31;4.47;;;2.75;;
64667;SDS011;51077;42.716;23.344;2024-03-22T09:39:57;4.25;;;2.30;;
64667;SDS011;51077;42.716;23.344;2024-03-22T09:42:23;4.27;;;2.63;;
64667;SDS011;51077;42.716;23.344;2024-03-22T09:44:50;3.80;;;2.50;;
64667;SDS011;51077;42.716;23.344;2024-03-22T09:47:17;3.70;;;2.17;;
64667;SDS011;51077;42.716;23.344;2024-03-22T09:49:45;3.08;;;2.30;;
64667;SDS011;51077;42.716;23.344;2024-03-22T09:52:12;4.18;;;2.63;;
64667;SDS011;51077;42.716;23.344;2024-03-22T09:54:39;3.38;;;2.17;;
64667;SDS011;51077;42.716;23.344;2024-03-22T09:57:18;4.07;;;2.40;;
64667;SDS011;51077;42.716;23.344;2024-03-22T09:59:43;3.30;;;2.08;;
64667;SDS011;51077;42.716;23.344;2024-03-22T10:02:11;4.25;;;2.67;;
64667;SDS011;51077;42.716;23.344;2024-03-22T10:04:37;2.55;;;1.77;;
64667;SDS011;51077;42.716;23.344;2024-03-22T10:07:03;4.25;;;2.30;;
64667;SDS011;51077;42.716;23.344;2024-03-22T10:09:29;3.53;;;2.10;;
64667;SDS011;51077;42.716;23.344;2024-03-22T10:11:56;3.78;;;2.10;;
64667;SDS011;51077;42.716;23.344;2024-03-22T10:14:22;2.92;;;1.90;;
64667;SDS011;51077;42.716;23.344;2024-03-22T10:16:53;3.80;;;2.00;;
64667;SDS011;51077;42.716;23.344;2024-03-22T10:19:22;4.65;;;2.53;;
64667;SDS011;51077;42.716;23.344;2024-03-22T10:21:48;3.20;;;2.25;;
64667;SDS011;51077;42.716;23.344;2024-03-22T10:24:28;3.70;;;2.08;;
64667;SDS011;51077;42.716;23.344;2024-03-22T10:26:54;3.40;;;2.10;;
64667;SDS011;51077;42.716;23.344;2024-03-22T10:29:20;3.40;;;2.10;;
64667;SDS011;51077;42.716;23.344;2024-03-22T10:31:47;3.47;;;2.15;;
64667;SDS011;51077;42.716;23.344;2024-03-22T10:34:13;4.70;;;2.17;;
64667;SDS011;51077;42.716;23.344;2024-03-22T10:36:39;3.50;;;2.15;;
64667;SDS011;51077;42.716;23.344;2024-03-22T10:39:05;3.20;;;2.27;;
64667;SDS011;51077;42.716;23.344;2024-03-22T10:41:31;3.47;;;2.17;;
64667;SDS011;51077;42.716;23.344;2024-03-22T10:43:57;4.93;;;2.20;;
64667;SDS011;51077;42.716;23.344;2024-03-22T10:46:23;3.97;;;2.50;;
64667;SDS011;51077;42.716;23.344;2024-03-22T10:48:54;3.10;;;2.00;;
64667;SDS011;51077;42.716;23.344;2024-03-22T10:51:20;2.90;;;1.83;;
64667;SDS011;51077;42.716;23.344;2024-03-22T10:53:48;2.87;;;1.97;;
64667;SDS011;51077;42.716;23.344;2024-03-22T10:56:15;3.47;;;1.87;;
64667;SDS011;51077;42.716;23.344;2024-03-22T10:58:41;3.37;;;1.80;;
64667;SDS011;51077;42.716;23.344;2024-03-22T11:01:11;3.03;;;1.73;;
64667;SDS011;51077;42.716;23.344;2024-03-22T11:03:46;3.13;;;1.93;;
64667;SDS011;51077;42.716;23.344;2024-03-22T11:06:12;3.33;;;1.97;;
64667;SDS011;51077;42.716;23.344;2024-03-22T11:08:37;3.73;;;2.07;;
64667;SDS011;51077;42.716;23.344;2024-03-22T11:11:12;3.13;;;1.70;;
64667;SDS011;51077;42.716;23.344;2024-03-22T11:13:40;3.70;;;1.90;;
64667;SDS011;51077;42.716;23.344;2024-03-22T11:16:06;4.10;;;2.00;;
64667;SDS011;51077;42.716;23.344;2024-03-22T11:18:33;3.27;;;2.10;;
64667;SDS011;51077;42.716;23.344;2024-03-22T11:20:59;2.80;;;1.63;;
64667;SDS011;51077;42.716;23.344;2024-03-22T11:23:24;3.17;;;1.97;;
64667;SDS011;51077;42.716;23.344;2024-03-22T11:25:50;4.30;;;2.30;;
64667;SDS011;51077;42.716;23.344;2024-03-22T11:28:16;3.83;;;2.57;;
64667;SDS011;51077;42.716;23.344;2024-03-22T11:30:41;3.40;;;2.30;;
64667;SDS011;51077;42.716;23.344;2024-03-22T11:33:07;4.13;;;1.87;;
64667;SDS011;51077;42.716;23.344;2024-03-22T11:35:33;4.10;;;2.13;;
64667;SDS011;51077;42.716;23.344;2024-03-22T11:37:58;5.87;;;2.27;;
64667;SDS011;51077;42.716;23.344;2024-03-22T11:40:27;3.53;;;2.17;;
64667;SDS011;51077;42.716;23.344;2024-03-22T11:42:55;3.90;;;1.93;;
64667;SDS011;51077;42.716;23.344;2024-03-22T11:45:22;3.00;;;1.90;;
64667;SDS011;51077;42.716;23.344;2024-03-22T11:47:48;3.50;;;2.10;;
64667;SDS011;51077;42.716;23.344;2024-03-22T11:50:14;5.03;;;2.60;;
64667;SDS011;51077;42.716;23.344;2024-03-22T11:52:40;3.53;;;2.40;;
64667;SDS011;51077;42.716;23.344;2024-03-22T11:55:06;4.03;;;1.97;;
64667;SDS011;51077;42.716;23.344;2024-03-22T11:57:32;4.90;;;2.30;;
64667;SDS011;51077;42.716;23.344;2024-03-22T12:00:02;3.27;;;2.20;;
64667;SDS011;51077;42.716;23.344;2024-03-22T12:02:31;4.87;;;2.20;;
64667;SDS011;51077;42.716;23.344;2024-03-22T12:04:57;4.10;;;1.90;;
64667;SDS011;51077;42.716;23.344;2024-03-22T12:07:23;3.90;;;2.27;;
64667;SDS011;51077;42.716;23.344;2024-03-22T12:09:49;2.80;;;1.97;;
64667;SDS011;51077;42.716;23.344;2024-03-22T12:12:14;2.90;;;1.97;;
64667;SDS011;51077;42.716;23.344;2024-03-22T12:14:40;3.53;;;2.03;;
64667;SDS011;51077;42.716;23.344;2024-03-22T12:17:06;4.17;;;2.03;;
64667;SDS011;51077;42.716;23.344;2024-03-22T12:19:32;3.20;;;2.07;;
64667;SDS011;51077;42.716;23.344;2024-03-22T12:21:58;4.27;;;2.20;;
64667;SDS011;51077;42.716;23.344;2024-03-22T12:24:24;3.10;;;2.03;;
64667;SDS011;51077;42.716;23.344;2024-03-22T12:26:50;3.10;;;1.93;;
64667;SDS011;51077;42.716;23.344;2024-03-22T12:29:16;3.50;;;1.73;;
64667;SDS011;51077;42.716;23.344;2024-03-22T12:31:42;4.00;;;2.07;;
64667;SDS011;51077;42.716;23.344;2024-03-22T12:34:07;3.37;;;1.80;;
64667;SDS011;51077;42.716;23.344;2024-03-22T12:36:33;3.40;;;2.07;;
64667;SDS011;51077;42.716;23.344;2024-03-22T12:38:59;3.00;;;1.90;;
64667;SDS011;51077;42.716;23.344;2024-03-22T12:41:24;2.20;;;1.53;;
64667;SDS011;51077;42.716;23.344;2024-03-22T12:43:50;3.13;;;1.87;;
64667;SDS011;51077;42.716;23.344;2024-03-22T12:46:16;2.87;;;1.50;;
64667;SDS011;51077;42.716;23.344;2024-03-22T12:48:41;4.27;;;2.50;;
64667;SDS011;51077;42.716;23.344;2024-03-22T12:51:06;2.73;;;1.80;;
64667;SDS011;51077;42.716;23.344;2024-03-22T12:53:32;3.90;;;2.23;;
64667;SDS011;51077;42.716;23.344;2024-03-22T12:55:57;3.93;;;1.83;;
64667;SDS011;51077;42.716;23.344;2024-03-22T12:58:24;3.63;;;1.97;;
64667;SDS011;51077;42.716;23.344;2024-03-22T13:00:49;3.80;;;2.13;;
64667;SDS011;51077;42.716;23.344;2024-03-22T13:03:15;3.37;;;1.83;;
64667;SDS011;51077;42.716;23.344;2024-03-22T13:05:41;3.77;;;1.93;;
64667;SDS011;51077;42.716;23.344;2024-03-22T13:08:07;2.97;;;1.70;;
64667;SDS011;51077;42.716;23.344;2024-03-22T13:10:32;3.77;;;1.80;;
64667;SDS011;51077;42.716;23.344;2024-03-22T13:12:58;3.20;;;1.90;;
64667;SDS011;51077;42.716;23.344;2024-03-22T13:15:24;6.27;;;2.00;;
64667;SDS011;51077;42.716;23.344;2024-03-22T13:17:50;3.35;;;1.90;;
64667;SDS011;51077;42.716;23.344;2024-03-22T13:20:16;4.90;;;1.90;;
64667;SDS011;51077;42.716;23.344;2024-03-22T13:22:43;2.88;;;1.80;;
64667;SDS011;51077;42.716;23.344;2024-03-22T13:25:09;3.57;;;2.00;;
64667;SDS011;51077;42.716;23.344;2024-03-22T13:27:35;3.25;;;1.92;;
64667;SDS011;51077;42.716;23.344;2024-03-22T13:30:03;5.50;;;2.20;;
64667;SDS011;51077;42.716;23.344;2024-03-22T13:32:30;4.07;;;2.20;;
64667;SDS011;51077;42.716;23.344;2024-03-22T13:34:56;4.07;;;1.93;;
64667;SDS011;51077;42.716;23.344;2024-03-22T13:37:22;3.07;;;1.90;;
64667;SDS011;51077;42.716;23.344;2024-03-22T13:39:50;3.07;;;1.90;;
64667;SDS011;51077;42.716;23.344;2024-03-22T13:42:15;3.30;;;2.10;;
64667;SDS011;51077;42.716;23.344;2024-03-22T13:44:41;3.43;;;2.10;;
64667;SDS011;51077;42.716;23.344;2024-03-22T13:47:07;3.00;;;1.90;;
64667;SDS011;51077;42.716;23.344;2024-03-22T13:49:33;3.70;;;1.90;;
64667;SDS011;51077;42.716;23.344;2024-03-22T13:51:58;4.67;;;2.10;;
64667;SDS011;51077;42.716;23.344;2024-03-22T13:54:24;4.63;;;1.90;;
64667;SDS011;51077;42.716;23.344;2024-03-22T13:56:50;5.37;;;2.10;;
64667;SDS011;51077;42.716;23.344;2024-03-22T13:59:15;3.20;;;1.87;;
64667;SDS011;51077;42.716;23.344;2024-03-22T14:01:41;4.50;;;2.30;;
64667;SDS011;51077;42.716;23.344;2024-03-22T14:04:10;3.53;;;2.03;;
64667;SDS011;51077;42.716;23.344;2024-03-22T14:06:36;4.00;;;2.17;;
64667;SDS011;51077;42.716;23.344;2024-03-22T14:09:02;3.83;;;2.13;;
64667;SDS011;51077;42.716;23.344;2024-03-22T14:11:29;3.38;;;2.15;;
64667;SDS011;51077;42.716;23.344;2024-03-22T14:13:58;3.22;;;2.10;;